Time;durP1;ratioP1;P1;durP2;ratioP2;P2;SDS_P1;SDS_P2;PMS_P1;PMS_P2;Temp;Humidity;BMP_temperature;BMP_pressure;BME280_temperature;BME280_humidity;BME280_pressure;Samples;Min_cycle;Max_cycle;Signal;HPM_P1;HPM_P2
2023/10/15 00:01:44;;;;;;;0.15;0.15;;;20.00;66.60;;;;;;5077039;28;20043;-76
2023/10/15 00:04:12;;;;;;;0.20;0.20;;;20.00;66.50;;;;;;5107475;27;20065;-76
2023/10/15 00:06:38;;;;;;;0.40;0.20;;;19.90;66.40;;;;;;5081616;28;20098;-77
2023/10/15 00:09:04;;;;;;;0.30;0.20;;;19.90;66.50;;;;;;5095120;28;20041;-77
2023/10/15 00:11:30;;;;;;;0.17;0.10;;;20.00;66.40;;;;;;5086973;28;20523;-77
2023/10/15 00:13:55;;;;;;;0.28;0.20;;;19.90;66.50;;;;;;5090174;28;20040;-77
2023/10/15 00:16:21;;;;;;;0.30;0.30;;;19.90;66.50;;;;;;5096174;28;20035;-77
2023/10/15 00:18:47;;;;;;;0.10;0.10;;;19.90;66.50;;;;;;5094459;28;20123;-77
2023/10/15 00:21:13;;;;;;;0.35;0.20;;;19.90;66.50;;;;;;5096463;28;22182;-76
2023/10/15 00:23:46;;;;;;;0.10;0.10;;;19.90;66.50;;;;;;5096369;28;20101;-77
2023/10/15 00:26:12;;;;;;;0.20;0.20;;;19.90;66.60;;;;;;5095773;28;20055;-77
2023/10/15 00:28:38;;;;;;;0.20;0.20;;;19.90;66.50;;;;;;5107125;27;20040;-77
2023/10/15 00:31:13;;;;;;;0.25;0.20;;;19.90;66.50;;;;;;5088234;28;20060;-76
2023/10/15 00:33:42;;;;;;;0.10;0.10;;;19.90;66.60;;;;;;5090099;28;20557;-77
2023/10/15 00:36:12;;;;;;;0.20;0.20;;;19.90;66.60;;;;;;5091126;28;20145;-77
2023/10/15 00:38:38;;;;;;;0.20;0.20;;;19.90;66.50;;;;;;5093222;28;20500;-77
2023/10/15 00:41:09;;;;;;;0.35;0.35;;;19.90;66.70;;;;;;5089270;28;20078;-77
2023/10/15 00:43:35;;;;;;;0.20;0.10;;;19.90;66.70;;;;;;5093174;28;20042;-77
2023/10/15 00:46:09;;;;;;;0.65;0.30;;;19.90;66.60;;;;;;5084573;28;20040;-76
2023/10/15 00:48:35;;;;;;;;;;;19.90;66.70;;;;;;5091442;28;20063;-77
2023/10/15 00:51:09;;;;;;;0.10;0.10;;;19.90;66.70;;;;;;5093253;28;19915;-77
2023/10/15 00:53:35;;;;;;;0.30;0.25;;;19.90;66.60;;;;;;5110343;28;20051;-77
2023/10/15 00:56:04;;;;;;;0.80;0.10;;;19.90;66.70;;;;;;5096152;28;20043;-77
2023/10/15 01:03:48;;;;;;;0.30;0.30;;;19.90;66.80;;;;;;5092376;28;20081;-77
2023/10/15 01:06:25;;;;;;;0.10;0.10;;;19.90;66.70;;;;;;5088579;28;20052;-77
2023/10/15 01:08:50;;;;;;;0.10;0.10;;;19.90;66.70;;;;;;5095543;28;20122;-77
2023/10/15 01:11:19;;;;;;;0.20;0.20;;;19.90;66.80;;;;;;5088970;28;20134;-77
2023/10/15 01:13:45;;;;;;;0.45;0.20;;;19.90;66.90;;;;;;5093831;28;20044;-77
2023/10/15 01:16:13;;;;;;;0.30;0.30;;;19.90;66.80;;;;;;5086495;28;20039;-77
2023/10/15 01:18:38;;;;;;;0.10;0.10;;;19.90;66.80;;;;;;5091097;28;20043;-77
2023/10/15 01:21:09;;;;;;;0.13;0.10;;;19.90;66.90;;;;;;5089725;28;20040;-76
2023/10/15 01:23:59;;;;;;;0.25;0.20;;;19.80;66.90;;;;;;5098290;28;20067;-77
2023/10/15 01:26:23;;;;;;;0.32;0.20;;;19.90;66.80;;;;;;5093375;28;20688;-77
2023/10/15 01:28:51;;;;;;;0.20;0.20;;;19.90;66.90;;;;;;5093961;28;20036;-77
2023/10/15 01:31:17;;;;;;;0.57;0.30;;;19.80;66.80;;;;;;5094651;28;20126;-77
2023/10/15 01:33:49;;;;;;;0.28;0.15;;;19.90;66.80;;;;;;5086064;28;20128;-77
2023/10/15 01:36:18;;;;;;;0.05;0.05;;;19.80;66.80;;;;;;5095256;28;20131;-77
2023/10/15 01:38:44;;;;;;;0.30;0.30;;;19.80;66.70;;;;;;5080055;28;20047;-77
2023/10/15 01:41:13;;;;;;;0.10;0.10;;;19.80;66.70;;;;;;5088057;28;20048;-77
2023/10/15 01:43:40;;;;;;;0.03;0.03;;;19.80;66.80;;;;;;5088261;28;20042;-77
2023/10/15 01:46:10;;;;;;;0.20;0.20;;;19.80;66.70;;;;;;5091143;28;20517;-78
2023/10/15 01:48:39;;;;;;;0.20;0.20;;;19.80;66.80;;;;;;5090788;28;20043;-77
2023/10/15 01:51:06;;;;;;;0.00;0.00;;;19.80;66.70;;;;;;5085511;28;20108;-77
2023/10/15 01:53:34;;;;;;;0.30;0.20;;;19.90;66.80;;;;;;5099357;28;20505;-77
2023/10/15 01:56:00;;;;;;;0.10;0.10;;;19.80;66.70;;;;;;5089954;28;20035;-76
2023/10/15 01:58:32;;;;;;;0.15;0.15;;;19.80;66.80;;;;;;5083620;28;20105;-77
2023/10/15 02:01:13;;;;;;;0.20;0.20;;;19.80;66.90;;;;;;5092197;28;20043;-77
2023/10/15 02:03:42;;;;;;;0.20;0.20;;;19.80;67.00;;;;;;5095776;28;20052;-77
2023/10/15 02:06:08;;;;;;;0.10;0.10;;;19.80;66.90;;;;;;5090258;28;20080;-76
2023/10/15 02:08:36;;;;;;;0.17;0.17;;;19.80;66.70;;;;;;5090475;28;20028;-77
2023/10/15 02:11:15;;;;;;;0.35;0.10;;;19.80;66.70;;;;;;5098318;28;20044;-77
2023/10/15 02:13:44;;;;;;;0.20;0.10;;;19.80;66.70;;;;;;5078706;28;20070;-77
2023/10/15 02:16:15;;;;;;;0.10;0.10;;;19.80;66.70;;;;;;5076897;28;20046;-77
2023/10/15 02:18:51;;;;;;;0.15;0.10;;;19.80;66.70;;;;;;5081539;28;20506;-77
2023/10/15 02:21:16;;;;;;;0.08;0.08;;;19.80;66.70;;;;;;5092050;28;21959;-77
2023/10/15 02:23:49;;;;;;;0.10;0.10;;;19.80;66.60;;;;;;5096418;28;20078;-77
2023/10/15 02:26:18;;;;;;;0.05;0.05;;;19.80;66.60;;;;;;5116540;27;20043;-76
2023/10/15 02:28:44;;;;;;;0.38;0.10;;;19.80;66.60;;;;;;5075490;28;20067;-77
2023/10/15 02:33:36;;;;;;;0.20;0.10;;;19.80;66.60;;;;;;5081618;28;20530;-77
2023/10/15 02:36:06;;;;;;;0.10;0.10;;;19.80;66.70;;;;;;5099143;28;20032;-77
2023/10/15 02:38:36;;;;;;;0.30;0.20;;;19.80;66.70;;;;;;5101345;28;20746;-77
2023/10/15 02:43:28;;;;;;;0.45;0.10;;;19.80;67.40;;;;;;5097111;28;20051;-77
2023/10/15 02:45:54;;;;;;;0.17;0.17;;;19.80;66.60;;;;;;5093876;28;20036;-77
2023/10/15 02:48:20;;;;;;;0.20;0.20;;;19.80;66.70;;;;;;5099205;28;20815;-77
2023/10/15 02:50:59;;;;;;;0.22;0.10;;;19.80;66.60;;;;;;5100070;28;20044;-77
2023/10/15 02:53:26;;;;;;;0.10;0.10;;;19.80;66.60;;;;;;5082121;28;20046;-77
2023/10/15 02:55:52;;;;;;;0.15;0.13;;;19.80;66.60;;;;;;5098138;28;20043;-77
2023/10/15 02:58:22;;;;;;;0.22;0.10;;;19.80;66.70;;;;;;5072684;28;20134;-77
2023/10/15 03:00:51;;;;;;;0.10;0.10;;;19.80;66.50;;;;;;5089669;28;20040;-77
2023/10/15 03:03:22;;;;;;;0.20;0.10;;;19.80;66.50;;;;;;5092565;28;20044;-77
2023/10/15 03:05:49;;;;;;;0.17;0.10;;;19.80;66.50;;;;;;5099408;28;20126;-77
2023/10/15 03:08:20;;;;;;;0.10;0.10;;;19.80;66.50;;;;;;5107769;27;20047;-77
2023/10/15 03:10:47;;;;;;;0.10;0.10;;;19.80;66.50;;;;;;5087229;28;20177;-77
2023/10/15 03:13:14;;;;;;;0.20;0.20;;;19.80;66.40;;;;;;5075479;28;20047;-77
2023/10/15 03:15:52;;;;;;;0.20;0.10;;;19.80;66.40;;;;;;5078687;28;20092;-77
2023/10/15 03:18:24;;;;;;;0.10;0.08;;;19.80;66.50;;;;;;5106515;27;20046;-77
2023/10/15 03:21:00;;;;;;;0.00;0.00;;;19.80;66.50;;;;;;5110847;27;20083;-77
2023/10/15 03:23:25;;;;;;;0.10;0.10;;;19.80;66.60;;;;;;5098811;28;20039;-77
2023/10/15 03:25:57;;;;;;;0.13;0.10;;;19.70;66.50;;;;;;5095084;28;20048;-77
2023/10/15 03:28:24;;;;;;;0.17;0.10;;;19.70;66.50;;;;;;5089461;28;20072;-77
2023/10/15 03:30:54;;;;;;;0.10;0.10;;;19.70;66.50;;;;;;5091923;28;20043;-77
2023/10/15 03:33:22;;;;;;;0.50;0.10;;;19.70;66.50;;;;;;5093848;28;20402;-77
2023/10/15 03:35:54;;;;;;;0.35;0.10;;;19.70;66.50;;;;;;5096088;28;20040;-77
2023/10/15 03:38:24;;;;;;;0.10;0.10;;;19.70;66.50;;;;;;5092875;28;20143;-77
2023/10/15 03:41:06;;;;;;;0.10;0.10;;;19.70;66.50;;;;;;5086673;28;20100;-77
2023/10/15 03:43:35;;;;;;;0.10;0.10;;;19.80;66.60;;;;;;5089790;28;20151;-77
2023/10/15 03:46:13;;;;;;;0.10;0.10;;;19.70;66.40;;;;;;5088376;28;20163;-77
2023/10/15 03:48:47;;;;;;;0.00;0.00;;;19.80;66.50;;;;;;5091578;28;20147;-77
2023/10/15 03:51:16;;;;;;;0.50;0.10;;;19.70;66.50;;;;;;5089689;28;20413;-77
2023/10/15 03:53:43;;;;;;;0.10;0.10;;;19.70;66.50;;;;;;5081077;28;20040;-77
2023/10/15 03:56:09;;;;;;;0.20;0.20;;;19.70;66.50;;;;;;5088011;28;20039;-77
2023/10/15 03:58:34;;;;;;;0.20;0.20;;;19.70;66.50;;;;;;5092747;28;20639;-77
2023/10/15 04:01:20;;;;;;;0.10;0.10;;;19.70;66.30;;;;;;5093615;28;20044;-77
2023/10/15 04:03:48;;;;;;;0.10;0.10;;;19.70;66.40;;;;;;5088243;28;20586;-77
2023/10/15 04:06:15;;;;;;;0.43;0.10;;;19.70;66.40;;;;;;5091537;28;20045;-77
2023/10/15 04:09:08;;;;;;;0.10;0.10;;;19.70;66.40;;;;;;5082909;28;20039;-77
2023/10/15 04:11:37;;;;;;;0.10;0.10;;;19.70;66.40;;;;;;5099287;28;20047;-77
2023/10/15 04:14:09;;;;;;;0.10;0.10;;;19.70;66.40;;;;;;5099211;28;20035;-76
2023/10/15 04:16:35;;;;;;;0.20;0.10;;;19.70;66.50;;;;;;5076611;28;20058;-77
2023/10/15 04:19:01;;;;;;;0.13;0.10;;;19.70;67.30;;;;;;5094460;28;20056;-77
2023/10/15 04:21:27;;;;;;;0.17;0.13;;;19.70;66.40;;;;;;5098737;28;20468;-77
2023/10/15 04:23:56;;;;;;;0.15;0.15;;;19.70;66.40;;;;;;5087236;28;20523;-77
2023/10/15 04:26:23;;;;;;;0.13;0.10;;;19.70;66.30;;;;;;5109736;27;20089;-77
2023/10/15 04:28:53;;;;;;;0.10;0.10;;;19.70;66.40;;;;;;5085084;28;20071;-77
2023/10/15 04:31:22;;;;;;;0.20;0.08;;;19.70;66.30;;;;;;5093622;28;20045;-77
2023/10/15 04:33:52;;;;;;;0.20;0.10;;;19.70;66.40;;;;;;5094489;28;20032;-77
2023/10/15 04:36:18;;;;;;;0.52;0.20;;;19.70;66.20;;;;;;5087122;28;20081;-77
2023/10/15 04:38:44;;;;;;;0.20;0.20;;;19.70;66.40;;;;;;5102719;28;20040;-77
2023/10/15 04:41:21;;;;;;;0.10;0.10;;;19.70;66.40;;;;;;5096683;28;20047;-76
2023/10/15 04:43:47;;;;;;;0.20;0.10;;;19.70;66.30;;;;;;5095299;28;20508;-77
2023/10/15 04:46:17;;;;;;;0.20;0.20;;;19.60;66.30;;;;;;5100861;28;20512;-77
2023/10/15 04:48:47;;;;;;;0.30;0.20;;;19.60;66.30;;;;;;5076325;28;20124;-77
2023/10/15 04:51:13;;;;;;;0.20;0.20;;;19.60;66.40;;;;;;5109254;27;20417;-77
2023/10/15 04:53:48;;;;;;;0.10;0.10;;;19.60;66.40;;;;;;5085377;28;20043;-77
2023/10/15 04:56:13;;;;;;;0.20;0.20;;;19.70;66.40;;;;;;5092982;28;20052;-77
2023/10/15 04:58:39;;;;;;;0.10;0.10;;;19.70;66.40;;;;;;5093404;28;20495;-77
2023/10/15 05:01:06;;;;;;;0.20;0.10;;;19.60;66.30;;;;;;5085956;28;20032;-77
2023/10/15 05:03:32;;;;;;;0.20;0.10;;;19.60;67.20;;;;;;5089209;28;20533;-77
2023/10/15 05:06:06;;;;;;;0.10;0.10;;;19.70;66.40;;;;;;5093414;28;20052;-77
2023/10/15 05:08:32;;;;;;;0.10;0.10;;;19.60;66.30;;;;;;5114885;28;20044;-77
2023/10/15 05:10:58;;;;;;;0.10;0.10;;;19.70;66.30;;;;;;5091925;28;20044;-77
2023/10/15 05:13:24;;;;;;;0.10;0.10;;;19.60;67.00;;;;;;5074466;28;20077;-77
2023/10/15 05:15:50;;;;;;;0.10;0.10;;;19.70;66.20;;;;;;5095072;28;20059;-77
2023/10/15 05:18:18;;;;;;;1.45;0.32;;;19.70;66.20;;;;;;5087302;28;20071;-77
2023/10/15 05:20:44;;;;;;;0.20;0.10;;;19.60;66.20;;;;;;5095282;28;20050;-77
2023/10/15 05:23:10;;;;;;;0.20;0.10;;;19.60;66.20;;;;;;5091899;28;20067;-77
2023/10/15 05:25:39;;;;;;;0.13;0.13;;;19.60;66.20;;;;;;5090702;28;20040;-77
2023/10/15 05:28:05;;;;;;;0.15;0.10;;;19.60;66.20;;;;;;5092104;28;20031;-77
2023/10/15 05:30:30;;;;;;;0.20;0.10;;;19.60;66.30;;;;;;5092700;28;20444;-77
2023/10/15 05:32:56;;;;;;;0.20;0.20;;;19.60;66.10;;;;;;5092534;28;20051;-77
2023/10/15 05:35:22;;;;;;;0.10;0.10;;;19.60;66.30;;;;;;5098607;28;20036;-77
2023/10/15 05:37:47;;;;;;;0.10;0.10;;;19.70;66.30;;;;;;5094576;28;20094;-77
2023/10/15 05:40:15;;;;;;;0.03;0.03;;;19.60;66.20;;;;;;5080113;28;20038;-77
2023/10/15 05:42:41;;;;;;;0.20;0.20;;;19.60;66.20;;;;;;5093938;28;20057;-77
2023/10/15 05:45:07;;;;;;;0.10;0.00;;;19.60;66.20;;;;;;5097369;28;20433;-77
2023/10/15 05:47:35;;;;;;;0.15;0.10;;;19.60;66.20;;;;;;5094441;28;20031;-77
2023/10/15 05:50:04;;;;;;;0.30;0.20;;;19.60;66.10;;;;;;5094115;28;20040;-77
2023/10/15 05:52:30;;;;;;;0.10;0.10;;;19.60;66.90;;;;;;5094482;28;20054;-77
2023/10/15 05:54:55;;;;;;;0.10;0.05;;;19.60;66.00;;;;;;5088084;28;20119;-77
2023/10/15 05:57:21;;;;;;;0.22;0.10;;;19.60;66.10;;;;;;5099178;28;20168;-77
2023/10/15 05:59:48;;;;;;;0.10;0.10;;;19.60;66.00;;;;;;5097865;28;20040;-77
2023/10/15 06:02:13;;;;;;;0.15;0.15;;;19.60;66.00;;;;;;5098569;28;20637;-77
2023/10/15 06:04:39;;;;;;;0.10;0.10;;;19.60;66.10;;;;;;5090518;28;20131;-77
2023/10/15 06:07:05;;;;;;;0.10;0.10;;;19.50;66.00;;;;;;5092187;28;20540;-77
2023/10/15 06:09:31;;;;;;;0.28;0.20;;;19.60;66.10;;;;;;5093605;28;20524;-77
2023/10/15 06:11:57;;;;;;;0.10;0.10;;;19.60;66.10;;;;;;5075975;28;20046;-77
2023/10/15 06:14:23;;;;;;;0.15;0.10;;;19.60;66.10;;;;;;5084001;28;20130;-77
2023/10/15 06:16:52;;;;;;;0.10;0.10;;;19.60;66.00;;;;;;5081895;28;20043;-77
2023/10/15 06:19:18;;;;;;;0.25;0.20;;;19.60;66.10;;;;;;5095412;28;20071;-77
2023/10/15 06:21:44;;;;;;;0.17;0.10;;;19.60;66.10;;;;;;5098233;28;20032;-77
2023/10/15 06:24:10;;;;;;;0.22;0.20;;;19.60;66.00;;;;;;5095243;28;20042;-77
2023/10/15 06:26:36;;;;;;;0.20;0.15;;;19.60;66.00;;;;;;5098949;28;20158;-77
2023/10/15 06:29:02;;;;;;;0.10;0.10;;;19.60;66.10;;;;;;5091832;28;20577;-77
2023/10/15 06:31:28;;;;;;;0.20;0.20;;;19.60;66.10;;;;;;5092167;28;20035;-77
2023/10/15 06:33:55;;;;;;;0.20;0.17;;;19.60;66.10;;;;;;5095785;28;20412;-77
2023/10/15 06:36:21;;;;;;;0.10;0.10;;;19.50;66.10;;;;;;5096416;28;20044;-77
2023/10/15 06:38:47;;;;;;;0.08;0.08;;;19.60;66.80;;;;;;5082477;28;20044;-77
2023/10/15 06:41:13;;;;;;;0.10;0.10;;;19.60;66.10;;;;;;5092220;28;20044;-77
2023/10/15 06:43:38;;;;;;;0.20;0.20;;;19.60;66.10;;;;;;5096044;28;20048;-77
2023/10/15 06:46:06;;;;;;;0.30;0.13;;;19.60;66.00;;;;;;5093545;28;20506;-77
2023/10/15 06:48:33;;;;;;;0.20;0.10;;;19.60;66.10;;;;;;5095545;28;20071;-77
2023/10/15 06:51:01;;;;;;;0.10;0.10;;;19.60;66.10;;;;;;5094969;28;20807;-77
2023/10/15 06:53:27;;;;;;;0.28;0.10;;;19.60;66.00;;;;;;5099610;28;20040;-77
2023/10/15 06:55:52;;;;;;;0.47;0.15;;;19.60;66.80;;;;;;5095753;28;20037;-77
2023/10/15 06:58:18;;;;;;;0.15;0.00;;;19.60;66.10;;;;;;5091871;28;20036;-77
2023/10/15 07:00:43;;;;;;;0.10;0.10;;;19.60;65.90;;;;;;5092746;28;21063;-77
2023/10/15 07:03:09;;;;;;;0.20;0.20;;;19.60;66.00;;;;;;5098131;28;20040;-77
2023/10/15 07:05:36;;;;;;;0.20;0.10;;;19.60;66.00;;;;;;5097400;28;20044;-77
2023/10/15 07:08:01;;;;;;;0.20;0.20;;;19.60;66.00;;;;;;5095716;28;20059;-77
2023/10/15 07:10:27;;;;;;;0.10;0.10;;;19.60;65.90;;;;;;5073857;28;20040;-77
2023/10/15 07:12:54;;;;;;;0.13;0.13;;;19.60;66.10;;;;;;5091322;28;20044;-77
2023/10/15 07:15:20;;;;;;;0.15;0.08;;;19.60;66.00;;;;;;5089676;28;20111;-77
2023/10/15 07:17:46;;;;;;;0.15;0.10;;;19.60;66.00;;;;;;5098430;28;20123;-77
2023/10/15 07:20:14;;;;;;;0.10;0.10;;;19.60;65.90;;;;;;5096834;28;20040;-77
2023/10/15 07:22:42;;;;;;;0.10;0.10;;;19.60;66.00;;;;;;5100982;27;20044;-77
2023/10/15 07:25:08;;;;;;;0.15;0.10;;;19.60;66.00;;;;;;5087077;28;20048;-77
2023/10/15 07:27:35;;;;;;;0.20;0.03;;;19.60;66.10;;;;;;5093266;28;20046;-78
2023/10/15 07:30:01;;;;;;;0.10;0.10;;;19.60;65.90;;;;;;5092072;28;20590;-77
2023/10/15 07:32:27;;;;;;;0.00;0.00;;;19.60;66.00;;;;;;5097053;28;20401;-77
2023/10/15 07:34:53;;;;;;;0.20;0.10;;;19.60;65.90;;;;;;5087659;28;20531;-77
2023/10/15 07:37:19;;;;;;;0.38;0.10;;;19.60;65.90;;;;;;5094893;28;20059;-76
2023/10/15 07:39:45;;;;;;;0.17;0.08;;;19.60;65.90;;;;;;5093636;28;20025;-77
2023/10/15 07:42:11;;;;;;;0.20;0.10;;;19.60;66.00;;;;;;5094788;28;20047;-77
2023/10/15 07:44:36;;;;;;;0.20;0.10;;;19.60;66.00;;;;;;5089281;28;20420;-77
2023/10/15 07:47:04;;;;;;;0.05;0.03;;;19.60;66.00;;;;;;5093331;28;20044;-77
2023/10/15 07:49:31;;;;;;;0.10;0.10;;;19.60;65.90;;;;;;5085848;28;20036;-77
2023/10/15 07:51:57;;;;;;;0.10;0.10;;;19.60;66.00;;;;;;5088055;28;20041;-77
2023/10/15 07:54:22;;;;;;;0.10;0.10;;;19.60;66.00;;;;;;5093039;28;20422;-77
2023/10/15 07:56:48;;;;;;;0.00;0.00;;;19.60;65.90;;;;;;5089159;28;20044;-77
2023/10/15 07:59:14;;;;;;;0.10;0.10;;;19.60;66.00;;;;;;5095888;28;20089;-77
2023/10/15 08:01:40;;;;;;;0.20;0.20;;;19.60;65.90;;;;;;5094881;28;20050;-77
2023/10/15 08:04:06;;;;;;;0.10;0.10;;;19.60;65.90;;;;;;5068567;28;20052;-77
2023/10/15 08:06:33;;;;;;;0.10;0.10;;;19.60;66.00;;;;;;5089445;28;20323;-77
2023/10/15 08:08:59;;;;;;;0.10;0.10;;;19.60;66.00;;;;;;5079022;28;20109;-77
2023/10/15 08:11:24;;;;;;;0.20;0.10;;;19.60;66.00;;;;;;5074251;28;20097;-77
2023/10/15 08:13:50;;;;;;;0.38;0.20;;;19.60;65.90;;;;;;5088666;28;20563;-77
2023/10/15 08:16:18;;;;;;;0.17;0.10;;;19.60;65.90;;;;;;5092608;28;20036;-77
2023/10/15 08:18:44;;;;;;;0.00;0.00;;;19.60;65.90;;;;;;5091892;28;20083;-77
2023/10/15 08:21:11;;;;;;;0.10;0.10;;;19.60;65.90;;;;;;5095206;28;20043;-77
2023/10/15 08:23:38;;;;;;;0.10;0.10;;;19.60;65.90;;;;;;5095591;28;20528;-77
2023/10/15 08:26:05;;;;;;;0.20;0.10;;;19.60;65.90;;;;;;5090295;28;20045;-77
2023/10/15 08:28:31;;;;;;;0.10;0.10;;;19.60;65.90;;;;;;5093308;28;20069;-77
2023/10/15 08:30:57;;;;;;;0.10;0.10;;;19.60;65.80;;;;;;5089477;28;20048;-77
2023/10/15 08:33:23;;;;;;;0.20;0.17;;;19.60;66.70;;;;;;5092231;28;20107;-76
2023/10/15 08:35:49;;;;;;;0.30;0.30;;;19.60;65.60;;;;;;5092851;28;20055;-77
2023/10/15 08:38:15;;;;;;;0.30;0.10;;;19.60;65.50;;;;;;5091100;28;20040;-77
2023/10/15 08:40:41;;;;;;;0.10;0.10;;;19.70;65.20;;;;;;5095503;28;20042;-77
2023/10/15 08:43:20;;;;;;;0.20;0.20;;;19.70;65.60;;;;;;5055934;28;20028;-77
2023/10/15 08:45:45;;;;;;;0.17;0.10;;;19.70;65.60;;;;;;5076920;28;20044;-77
2023/10/15 08:48:11;;;;;;;0.22;0.10;;;19.70;65.70;;;;;;5057113;28;20043;-77
2023/10/15 08:50:37;;;;;;;0.10;0.10;;;19.70;65.80;;;;;;5086935;28;20101;-77
2023/10/15 08:53:09;;;;;;;0.10;0.10;;;19.70;65.70;;;;;;5090046;28;20507;-77
2023/10/15 08:55:38;;;;;;;0.25;0.20;;;19.70;65.60;;;;;;5074031;28;20416;-77
2023/10/15 08:58:06;;;;;;;0.10;0.10;;;19.70;65.50;;;;;;5091693;28;20044;-77
2023/10/15 09:00:32;;;;;;;0.10;0.10;;;19.70;65.40;;;;;;5099542;28;20507;-78
2023/10/15 09:03:00;;;;;;;0.10;0.10;;;19.70;65.60;;;;;;5067412;28;20077;-77
2023/10/15 09:05:26;;;;;;;0.10;0.00;;;19.70;65.60;;;;;;5091542;28;20037;-77
2023/10/15 09:07:54;;;;;;;0.10;0.10;;;19.70;65.50;;;;;;5081677;28;20060;-77
2023/10/15 09:10:20;;;;;;;0.10;0.10;;;19.70;65.70;;;;;;5088110;28;20027;-77
2023/10/15 09:12:45;;;;;;;0.10;0.10;;;19.70;65.80;;;;;;5081388;28;20024;-77
2023/10/15 09:15:17;;;;;;;0.32;0.10;;;19.80;65.70;;;;;;5112787;27;20033;-77
2023/10/15 09:17:55;;;;;;;0.10;0.00;;;19.70;65.60;;;;;;5099021;28;20044;-77
2023/10/15 09:20:26;;;;;;;0.10;0.03;;;19.70;65.70;;;;;;5096720;28;20040;-77
2023/10/15 09:22:59;;;;;;;0.10;0.00;;;19.70;65.60;;;;;;5096093;28;20037;-77
2023/10/15 09:25:28;;;;;;;0.30;0.00;;;19.70;65.70;;;;;;5095610;28;20524;-77
2023/10/15 09:27:54;;;;;;;0.00;0.00;;;19.70;65.60;;;;;;5076889;28;20100;-77
2023/10/15 09:30:23;;;;;;;0.10;0.10;;;19.80;65.80;;;;;;5109661;27;20040;-77
2023/10/15 09:32:49;;;;;;;0.10;0.10;;;19.80;65.60;;;;;;5083860;28;20040;-78
2023/10/15 09:35:15;;;;;;;0.20;0.00;;;19.80;65.70;;;;;;5090225;28;20383;-77
2023/10/15 09:37:41;;;;;;;0.10;0.10;;;19.80;65.80;;;;;;5096381;28;20070;-78
2023/10/15 09:40:10;;;;;;;0.10;0.10;;;19.80;65.50;;;;;;5091577;28;20554;-77
2023/10/15 09:42:38;;;;;;;0.10;0.10;;;19.80;65.80;;;;;;5088644;28;20043;-77
2023/10/15 09:45:06;;;;;;;0.20;0.20;;;19.80;65.60;;;;;;5095882;28;20131;-77
2023/10/15 09:47:32;;;;;;;0.05;0.05;;;19.80;65.70;;;;;;5091397;28;20042;-77
2023/10/15 09:49:59;;;;;;;0.10;0.10;;;19.80;65.70;;;;;;5109126;27;20059;-77
2023/10/15 09:52:25;;;;;;;0.30;0.20;;;19.80;65.90;;;;;;5070318;28;20024;-77
2023/10/15 09:54:50;;;;;;;0.10;0.10;;;19.80;65.80;;;;;;5060505;28;20089;-77
2023/10/15 09:57:16;;;;;;;0.10;0.08;;;19.80;65.70;;;;;;5064947;28;20082;-77
2023/10/15 09:59:41;;;;;;;0.00;0.00;;;19.80;65.60;;;;;;5089725;28;20030;-78
2023/10/15 10:02:07;;;;;;;0.20;0.10;;;19.80;65.60;;;;;;5094557;28;20505;-77
2023/10/15 10:05:00;;;;;;;0.15;0.10;;;19.80;65.80;;;;;;5053177;28;20094;-78
2023/10/15 10:07:47;;;;;;;0.20;0.10;;;19.80;65.60;;;;;;5084994;28;20046;-77
2023/10/15 10:10:31;;;;;;;0.10;0.10;;;19.80;65.90;;;;;;5074539;28;20091;-77
2023/10/15 10:13:42;;;;;;;0.10;0.10;;;19.80;65.50;;;;;;5096003;28;20044;-77
2023/10/15 10:16:19;;;;;;;0.20;0.10;;;19.80;65.50;;;;;;5082138;28;20048;-77
2023/10/15 10:18:44;;;;;;;0.20;0.10;;;19.80;65.40;;;;;;5096761;28;20039;-77
2023/10/15 10:21:15;;;;;;;0.20;0.10;;;19.90;65.50;;;;;;5111982;27;20044;-77
2023/10/15 10:23:41;;;;;;;0.00;0.00;;;19.90;65.40;;;;;;5079639;28;20045;-77
2023/10/15 10:26:13;;;;;;;0.10;0.10;;;19.90;65.30;;;;;;5096478;28;20109;-77
2023/10/15 10:28:39;;;;;;;0.10;0.10;;;19.90;65.30;;;;;;5108470;27;20035;-77
2023/10/15 10:31:07;;;;;;;0.10;0.10;;;19.90;65.20;;;;;;5079201;28;20496;-77
2023/10/15 10:33:44;;;;;;;0.08;0.00;;;20.00;65.30;;;;;;5079141;28;20032;-77
2023/10/15 10:36:20;;;;;;;0.20;0.20;;;20.00;65.30;;;;;;5095171;28;20131;-77
2023/10/15 10:39:14;;;;;;;0.20;0.10;;;20.00;66.10;;;;;;5107770;27;20140;-77
2023/10/15 10:41:44;;;;;;;0.00;0.00;;;20.00;65.30;;;;;;5091514;28;20072;-77
2023/10/15 10:44:22;;;;;;;0.55;0.10;;;20.00;65.20;;;;;;5096608;28;20130;-77
2023/10/15 10:46:48;;;;;;;0.20;0.10;;;20.00;65.30;;;;;;5088870;28;20106;-77
2023/10/15 10:49:13;;;;;;;0.10;0.10;;;20.00;65.30;;;;;;5091756;28;20610;-77
2023/10/15 10:51:40;;;;;;;0.10;0.10;;;20.00;65.30;;;;;;5097304;28;20040;-77
2023/10/15 10:54:06;;;;;;;0.20;0.00;;;20.00;65.20;;;;;;5101603;27;20483;-77
2023/10/15 10:56:40;;;;;;;0.13;0.10;;;20.00;65.10;;;;;;5097724;28;20602;-77
2023/10/15 10:59:06;;;;;;;0.03;0.00;;;20.00;65.10;;;;;;5096733;28;20546;-78
2023/10/15 11:01:41;;;;;;;0.10;0.10;;;20.00;65.10;;;;;;5112033;27;20404;-78
2023/10/15 11:04:08;;;;;;;0.00;0.00;;;20.00;65.10;;;;;;5097455;28;20500;-77
2023/10/15 11:06:34;;;;;;;0.17;0.17;;;20.00;65.10;;;;;;5091077;28;20048;-77
2023/10/15 11:09:00;;;;;;;0.20;0.10;;;20.00;65.00;;;;;;5096862;28;20122;-78
2023/10/15 11:11:26;;;;;;;0.20;0.13;;;20.10;65.00;;;;;;5101726;28;20063;-77
2023/10/15 11:13:54;;;;;;;0.08;0.08;;;20.10;65.10;;;;;;5095944;28;20485;-77
2023/10/15 11:16:19;;;;;;;0.20;0.10;;;20.10;65.00;;;;;;5075622;28;20094;-77
2023/10/15 11:18:45;;;;;;;0.10;0.10;;;20.10;65.00;;;;;;5082478;28;20048;-77
2023/10/15 11:21:11;;;;;;;0.10;0.10;;;20.10;65.80;;;;;;5094576;28;20036;-77
2023/10/15 11:23:38;;;;;;;0.00;0.00;;;20.10;65.00;;;;;;5101051;28;20160;-77
2023/10/15 11:26:04;;;;;;;0.10;0.10;;;20.10;64.90;;;;;;5088585;28;20047;-77
2023/10/15 11:28:29;;;;;;;0.20;0.00;;;20.10;64.90;;;;;;5084491;28;20086;-77
2023/10/15 11:30:55;;;;;;;0.10;0.10;;;20.10;65.00;;;;;;5064950;28;20048;-77
2023/10/15 11:33:21;;;;;;;0.20;0.10;;;20.10;65.00;;;;;;5060499;28;20052;-77
2023/10/15 11:35:51;;;;;;;0.08;0.08;;;20.10;64.90;;;;;;5095267;28;20411;-77
2023/10/15 11:38:41;;;;;;;0.00;0.00;;;20.10;64.90;;;;;;5087365;28;20051;-77
2023/10/15 11:41:07;;;;;;;0.00;0.00;;;20.10;64.90;;;;;;5067084;28;20035;-77
2023/10/15 11:43:34;;;;;;;0.28;0.28;;;20.10;65.70;;;;;;5083051;28;20467;-76
2023/10/15 11:46:07;;;;;;;0.10;0.10;;;20.10;64.90;;;;;;5094558;27;20048;-77
2023/10/15 11:48:34;;;;;;;0.03;0.03;;;20.20;65.00;;;;;;5082734;28;20063;-77
2023/10/15 11:50:59;;;;;;;0.00;0.00;;;20.10;64.90;;;;;;5070638;28;20480;-77
2023/10/15 11:53:44;;;;;;;0.00;0.00;;;20.10;65.00;;;;;;5064213;28;20108;-77
2023/10/15 11:56:16;;;;;;;0.10;0.10;;;20.20;65.00;;;;;;5085196;28;20040;-77
2023/10/15 11:58:45;;;;;;;0.10;0.10;;;20.20;65.00;;;;;;5090520;28;20039;-77
2023/10/15 12:01:14;;;;;;;0.10;0.10;;;20.20;65.00;;;;;;5074568;28;20111;-82
2023/10/15 12:03:42;;;;;;;0.08;0.00;;;20.20;65.00;;;;;;5064383;28;20081;-82
2023/10/15 12:06:08;;;;;;;0.22;0.20;;;20.10;64.90;;;;;;5077502;28;20486;-82
2023/10/15 12:08:33;;;;;;;0.20;0.20;;;20.20;65.00;;;;;;5083474;28;20036;-81
2023/10/15 12:10:59;;;;;;;0.13;0.10;;;20.20;65.00;;;;;;5068190;28;20039;-81
2023/10/15 12:13:25;;;;;;;0.10;0.10;;;20.20;65.00;;;;;;5089889;28;20040;-82
2023/10/15 12:15:54;;;;;;;0.15;0.15;;;20.20;65.00;;;;;;5070532;28;20046;-82
2023/10/15 12:18:22;;;;;;;0.20;0.10;;;20.20;65.00;;;;;;5087662;27;20058;-82
2023/10/15 12:20:52;;;;;;;0.10;0.00;;;20.10;64.90;;;;;;5086293;27;20067;-82
2023/10/15 12:23:20;;;;;;;0.57;0.00;;;20.20;64.90;;;;;;5086853;28;20070;-82
2023/10/15 12:25:46;;;;;;;0.08;0.08;;;20.20;64.80;;;;;;5084164;27;20059;-82
2023/10/15 12:28:12;;;;;;;0.13;0.10;;;20.20;64.70;;;;;;5082739;28;20036;-82
2023/10/15 12:30:40;;;;;;;0.10;0.10;;;20.20;64.80;;;;;;5085545;28;20143;-83
2023/10/15 12:33:07;;;;;;;0.10;0.00;;;20.20;64.70;;;;;;5096613;27;20097;-84
2023/10/15 12:35:36;;;;;;;0.08;0.00;;;20.20;64.60;;;;;;5080095;27;20119;-83
2023/10/15 12:38:02;;;;;;;0.20;0.00;;;20.20;64.60;;;;;;5070004;28;20097;-83
2023/10/15 12:40:33;;;;;;;0.10;0.10;;;20.20;64.50;;;;;;5093321;28;20122;-83
2023/10/15 12:43:00;;;;;;;0.20;0.10;;;20.20;64.60;;;;;;5088627;28;20040;-84
2023/10/15 12:45:29;;;;;;;0.20;0.20;;;20.20;64.60;;;;;;5078275;28;20068;-81
2023/10/15 12:47:58;;;;;;;0.10;0.00;;;20.20;64.60;;;;;;5083595;28;20044;-81
2023/10/15 12:50:24;;;;;;;0.00;0.00;;;20.20;64.60;;;;;;5087569;28;20508;-81
2023/10/15 12:52:52;;;;;;;0.00;0.00;;;20.20;64.60;;;;;;5094684;28;20066;-81
2023/10/15 12:55:20;;;;;;;0.00;0.00;;;20.20;65.40;;;;;;5083048;28;20098;-81
2023/10/15 12:57:46;;;;;;;0.00;0.00;;;20.20;64.60;;;;;;5089711;28;20074;-81
2023/10/15 13:00:19;;;;;;;0.10;0.08;;;20.20;64.40;;;;;;5091620;28;20039;-81
2023/10/15 13:02:45;;;;;;;0.00;0.00;;;20.20;64.40;;;;;;5095007;28;20488;-81
2023/10/15 13:05:13;;;;;;;0.08;0.00;;;20.10;64.50;;;;;;5092103;28;20464;-82